sensor_id;sensor_type;location;lat;lon;timestamp;P1;durP1;ratioP1;P2;durP2;ratioP2
18280;SDS011;9266;51.132;17.062;2022-11-24T00:01:02;85.27;;;45.70;;
18280;SDS011;9266;51.132;17.062;2022-11-24T00:03:29;87.17;;;44.27;;
18280;SDS011;9266;51.132;17.062;2022-11-24T00:06:01;87.57;;;44.33;;
18280;SDS011;9266;51.132;17.062;2022-11-24T00:08:29;89.07;;;45.77;;
18280;SDS011;9266;51.132;17.062;2022-11-24T00:11:01;92.60;;;46.77;;
18280;SDS011;9266;51.132;17.062;2022-11-24T00:13:28;94.00;;;44.80;;
18280;SDS011;9266;51.132;17.062;2022-11-24T00:16:02;92.23;;;46.87;;
18280;SDS011;9266;51.132;17.062;2022-11-24T00:18:29;92.63;;;46.00;;
18280;SDS011;9266;51.132;17.062;2022-11-24T00:20:57;94.97;;;48.50;;
18280;SDS011;9266;51.132;17.062;2022-11-24T00:23:24;90.43;;;47.43;;
18280;SDS011;9266;51.132;17.062;2022-11-24T00:25:52;81.73;;;45.80;;
18280;SDS011;9266;51.132;17.062;2022-11-24T00:28:19;84.47;;;46.27;;
18280;SDS011;9266;51.132;17.062;2022-11-24T00:30:47;82.90;;;44.93;;
18280;SDS011;9266;51.132;17.062;2022-11-24T00:33:14;87.87;;;46.93;;
18280;SDS011;9266;51.132;17.062;2022-11-24T00:35:41;85.60;;;43.57;;
18280;SDS011;9266;51.132;17.062;2022-11-24T00:38:08;80.17;;;44.40;;
18280;SDS011;9266;51.132;17.062;2022-11-24T00:40:35;83.23;;;43.83;;
18280;SDS011;9266;51.132;17.062;2022-11-24T00:43:03;90.77;;;45.73;;
18280;SDS011;9266;51.132;17.062;2022-11-24T00:45:30;86.40;;;45.83;;
18280;SDS011;9266;51.132;17.062;2022-11-24T00:47:57;80.27;;;44.43;;
18280;SDS011;9266;51.132;17.062;2022-11-24T00:50:25;91.43;;;48.53;;
18280;SDS011;9266;51.132;17.062;2022-11-24T00:52:52;80.90;;;44.27;;
18280;SDS011;9266;51.132;17.062;2022-11-24T00:55:19;88.57;;;45.73;;
18280;SDS011;9266;51.132;17.062;2022-11-24T00:57:48;92.53;;;49.20;;
18280;SDS011;9266;51.132;17.062;2022-11-24T01:00:17;89.50;;;45.07;;
18280;SDS011;9266;51.132;17.062;2022-11-24T01:02:44;91.60;;;45.07;;
18280;SDS011;9266;51.132;17.062;2022-11-24T01:05:11;81.27;;;44.30;;
18280;SDS011;9266;51.132;17.062;2022-11-24T01:07:38;91.60;;;48.03;;
18280;SDS011;9266;51.132;17.062;2022-11-24T01:10:06;89.33;;;45.77;;
18280;SDS011;9266;51.132;17.062;2022-11-24T01:12:33;77.80;;;42.77;;
18280;SDS011;9266;51.132;17.062;2022-11-24T01:15:00;78.43;;;43.90;;
18280;SDS011;9266;51.132;17.062;2022-11-24T01:17:29;86.87;;;44.97;;
18280;SDS011;9266;51.132;17.062;2022-11-24T01:19:56;83.53;;;45.00;;
18280;SDS011;9266;51.132;17.062;2022-11-24T01:22:23;81.47;;;43.53;;
18280;SDS011;9266;51.132;17.062;2022-11-24T01:24:51;99.50;;;48.60;;
18280;SDS011;9266;51.132;17.062;2022-11-24T01:27:18;89.43;;;44.83;;
18280;SDS011;9266;51.132;17.062;2022-11-24T01:29:45;80.67;;;43.77;;
18280;SDS011;9266;51.132;17.062;2022-11-24T01:32:13;85.10;;;43.93;;
18280;SDS011;9266;51.132;17.062;2022-11-24T01:34:41;80.27;;;45.23;;
18280;SDS011;9266;51.132;17.062;2022-11-24T01:37:09;75.87;;;41.93;;
18280;SDS011;9266;51.132;17.062;2022-11-24T01:39:36;77.57;;;41.87;;
18280;SDS011;9266;51.132;17.062;2022-11-24T01:42:03;74.43;;;41.80;;
18280;SDS011;9266;51.132;17.062;2022-11-24T01:44:31;82.57;;;43.03;;
18280;SDS011;9266;51.132;17.062;2022-11-24T01:46:59;77.50;;;42.93;;
18280;SDS011;9266;51.132;17.062;2022-11-24T01:49:30;81.17;;;43.87;;
18280;SDS011;9266;51.132;17.062;2022-11-24T01:52:02;85.60;;;45.03;;
18280;SDS011;9266;51.132;17.062;2022-11-24T01:54:32;84.03;;;44.40;;
18280;SDS011;9266;51.132;17.062;2022-11-24T01:57:02;81.57;;;42.47;;
18280;SDS011;9266;51.132;17.062;2022-11-24T01:59:31;79.23;;;43.67;;
18280;SDS011;9266;51.132;17.062;2022-11-24T02:01:59;82.40;;;43.00;;
18280;SDS011;9266;51.132;17.062;2022-11-24T02:04:27;75.17;;;42.20;;
18280;SDS011;9266;51.132;17.062;2022-11-24T02:06:57;80.23;;;40.87;;
18280;SDS011;9266;51.132;17.062;2022-11-24T02:09:27;85.00;;;43.13;;
18280;SDS011;9266;51.132;17.062;2022-11-24T02:11:55;88.37;;;45.03;;
18280;SDS011;9266;51.132;17.062;2022-11-24T02:14:24;88.40;;;45.23;;
18280;SDS011;9266;51.132;17.062;2022-11-24T02:16:52;80.83;;;42.73;;
18280;SDS011;9266;51.132;17.062;2022-11-24T02:19:21;74.87;;;42.37;;
18280;SDS011;9266;51.132;17.062;2022-11-24T02:21:57;75.70;;;40.80;;
18280;SDS011;9266;51.132;17.062;2022-11-24T02:24:26;82.93;;;42.53;;
18280;SDS011;9266;51.132;17.062;2022-11-24T02:26:56;76.70;;;40.17;;
18280;SDS011;9266;51.132;17.062;2022-11-24T02:29:24;85.80;;;40.90;;
18280;SDS011;9266;51.132;17.062;2022-11-24T02:31:51;75.03;;;40.90;;
18280;SDS011;9266;51.132;17.062;2022-11-24T02:34:20;84.53;;;42.93;;
18280;SDS011;9266;51.132;17.062;2022-11-24T02:36:48;75.33;;;40.53;;
18280;SDS011;9266;51.132;17.062;2022-11-24T02:39:15;81.50;;;42.77;;
18280;SDS011;9266;51.132;17.062;2022-11-24T02:41:43;84.40;;;44.57;;
18280;SDS011;9266;51.132;17.062;2022-11-24T02:44:13;84.93;;;44.33;;
18280;SDS011;9266;51.132;17.062;2022-11-24T02:46:42;81.13;;;41.07;;
18280;SDS011;9266;51.132;17.062;2022-11-24T02:49:09;84.20;;;41.70;;
18280;SDS011;9266;51.132;17.062;2022-11-24T02:51:36;80.77;;;41.97;;
18280;SDS011;9266;51.132;17.062;2022-11-24T02:54:03;78.23;;;43.47;;
18280;SDS011;9266;51.132;17.062;2022-11-24T02:56:31;78.57;;;43.60;;
18280;SDS011;9266;51.132;17.062;2022-11-24T02:58:58;78.73;;;42.30;;
18280;SDS011;9266;51.132;17.062;2022-11-24T03:01:26;79.53;;;43.47;;
18280;SDS011;9266;51.132;17.062;2022-11-24T03:03:53;81.33;;;43.00;;
18280;SDS011;9266;51.132;17.062;2022-11-24T03:06:20;82.07;;;42.77;;
18280;SDS011;9266;51.132;17.062;2022-11-24T03:08:47;79.30;;;44.23;;
18280;SDS011;9266;51.132;17.062;2022-11-24T03:11:15;80.93;;;43.23;;
18280;SDS011;9266;51.132;17.062;2022-11-24T03:13:42;86.03;;;43.03;;
18280;SDS011;9266;51.132;17.062;2022-11-24T03:16:09;85.07;;;43.67;;
18280;SDS011;9266;51.132;17.062;2022-11-24T03:18:38;82.20;;;42.50;;
18280;SDS011;9266;51.132;17.062;2022-11-24T03:21:05;79.87;;;43.00;;
18280;SDS011;9266;51.132;17.062;2022-11-24T03:23:32;76.37;;;43.13;;
18280;SDS011;9266;51.132;17.062;2022-11-24T03:26:05;77.50;;;42.97;;
18280;SDS011;9266;51.132;17.062;2022-11-24T03:28:33;84.13;;;42.13;;
18280;SDS011;9266;51.132;17.062;2022-11-24T03:31:00;82.37;;;44.17;;
18280;SDS011;9266;51.132;17.062;2022-11-24T03:33:27;87.43;;;43.30;;
18280;SDS011;9266;51.132;17.062;2022-11-24T03:35:56;81.30;;;43.30;;
18280;SDS011;9266;51.132;17.062;2022-11-24T03:38:23;82.23;;;43.03;;
18280;SDS011;9266;51.132;17.062;2022-11-24T03:40:50;82.07;;;44.23;;
18280;SDS011;9266;51.132;17.062;2022-11-24T03:43:17;86.03;;;44.00;;
18280;SDS011;9266;51.132;17.062;2022-11-24T03:45:45;87.20;;;44.50;;
18280;SDS011;9266;51.132;17.062;2022-11-24T03:48:12;79.80;;;43.97;;
18280;SDS011;9266;51.132;17.062;2022-11-24T03:50:39;83.73;;;44.47;;
18280;SDS011;9266;51.132;17.062;2022-11-24T03:53:08;79.67;;;42.63;;
18280;SDS011;9266;51.132;17.062;2022-11-24T03:55:35;78.73;;;42.03;;
18280;SDS011;9266;51.132;17.062;2022-11-24T03:58:02;82.63;;;43.57;;
18280;SDS011;9266;51.132;17.062;2022-11-24T04:00:29;81.03;;;43.70;;
18280;SDS011;9266;51.132;17.062;2022-11-24T04:02:57;85.30;;;45.03;;
18280;SDS011;9266;51.132;17.062;2022-11-24T04:05:24;91.97;;;45.03;;
18280;SDS011;9266;51.132;17.062;2022-11-24T04:07:53;90.17;;;47.10;;
18280;SDS011;9266;51.132;17.062;2022-11-24T04:10:22;87.77;;;47.43;;
18280;SDS011;9266;51.132;17.062;2022-11-24T04:12:49;90.13;;;48.27;;
18280;SDS011;9266;51.132;17.062;2022-11-24T04:15:16;85.60;;;47.70;;
18280;SDS011;9266;51.132;17.062;2022-11-24T04:17:44;101.10;;;49.87;;
18280;SDS011;9266;51.132;17.062;2022-11-24T04:20:11;98.90;;;50.67;;
18280;SDS011;9266;51.132;17.062;2022-11-24T04:22:39;98.90;;;50.43;;
18280;SDS011;9266;51.132;17.062;2022-11-24T04:25:06;102.63;;;53.50;;
18280;SDS011;9266;51.132;17.062;2022-11-24T04:27:36;99.40;;;50.83;;
18280;SDS011;9266;51.132;17.062;2022-11-24T04:30:03;87.87;;;48.70;;
18280;SDS011;9266;51.132;17.062;2022-11-24T04:32:30;98.90;;;49.33;;
18280;SDS011;9266;51.132;17.062;2022-11-24T04:34:58;93.53;;;48.50;;
18280;SDS011;9266;51.132;17.062;2022-11-24T04:37:25;88.80;;;49.03;;
18280;SDS011;9266;51.132;17.062;2022-11-24T04:39:52;85.43;;;47.37;;
18280;SDS011;9266;51.132;17.062;2022-11-24T04:42:20;92.13;;;48.93;;
18280;SDS011;9266;51.132;17.062;2022-11-24T04:44:48;97.67;;;50.10;;
18280;SDS011;9266;51.132;17.062;2022-11-24T04:47:16;100.87;;;53.20;;
18280;SDS011;9266;51.132;17.062;2022-11-24T04:49:45;97.60;;;52.30;;
18280;SDS011;9266;51.132;17.062;2022-11-24T04:52:12;106.27;;;53.07;;
18280;SDS011;9266;51.132;17.062;2022-11-24T04:54:39;104.80;;;55.03;;
18280;SDS011;9266;51.132;17.062;2022-11-24T04:57:08;100.40;;;52.70;;
18280;SDS011;9266;51.132;17.062;2022-11-24T04:59:35;98.30;;;53.23;;
18280;SDS011;9266;51.132;17.062;2022-11-24T05:02:03;99.87;;;49.47;;
18280;SDS011;9266;51.132;17.062;2022-11-24T05:04:31;93.87;;;49.73;;
18280;SDS011;9266;51.132;17.062;2022-11-24T05:06:58;97.17;;;51.27;;
18280;SDS011;9266;51.132;17.062;2022-11-24T05:09:25;95.03;;;50.23;;
18280;SDS011;9266;51.132;17.062;2022-11-24T05:11:52;99.60;;;49.77;;
18280;SDS011;9266;51.132;17.062;2022-11-24T05:14:20;84.50;;;47.90;;
18280;SDS011;9266;51.132;17.062;2022-11-24T05:16:47;98.77;;;50.67;;
18280;SDS011;9266;51.132;17.062;2022-11-24T05:19:16;86.90;;;47.23;;
18280;SDS011;9266;51.132;17.062;2022-11-24T05:21:43;89.70;;;48.50;;
18280;SDS011;9266;51.132;17.062;2022-11-24T05:24:10;97.33;;;47.93;;
18280;SDS011;9266;51.132;17.062;2022-11-24T05:26:37;89.60;;;47.37;;
18280;SDS011;9266;51.132;17.062;2022-11-24T05:29:05;89.73;;;47.80;;
18280;SDS011;9266;51.132;17.062;2022-11-24T05:31:32;86.73;;;46.27;;
18280;SDS011;9266;51.132;17.062;2022-11-24T05:33:59;93.70;;;47.17;;
18280;SDS011;9266;51.132;17.062;2022-11-24T05:36:28;94.37;;;45.63;;
18280;SDS011;9266;51.132;17.062;2022-11-24T05:39:17;87.30;;;45.57;;
18280;SDS011;9266;51.132;17.062;2022-11-24T05:44:57;89.77;;;47.83;;
18280;SDS011;9266;51.132;17.062;2022-11-24T05:47:24;79.27;;;42.30;;
18280;SDS011;9266;51.132;17.062;2022-11-24T05:49:52;83.90;;;43.07;;
18280;SDS011;9266;51.132;17.062;2022-11-24T05:52:20;90.47;;;45.77;;
18280;SDS011;9266;51.132;17.062;2022-11-24T05:54:47;89.50;;;44.83;;
18280;SDS011;9266;51.132;17.062;2022-11-24T05:57:15;86.23;;;43.87;;
18280;SDS011;9266;51.132;17.062;2022-11-24T05:59:42;83.60;;;41.97;;
18280;SDS011;9266;51.132;17.062;2022-11-24T06:02:09;92.97;;;44.37;;
18280;SDS011;9266;51.132;17.062;2022-11-24T06:04:36;88.67;;;41.90;;
18280;SDS011;9266;51.132;17.062;2022-11-24T06:07:05;84.10;;;40.23;;
18280;SDS011;9266;51.132;17.062;2022-11-24T06:09:35;86.60;;;42.27;;
18280;SDS011;9266;51.132;17.062;2022-11-24T06:12:03;83.27;;;41.77;;
18280;SDS011;9266;51.132;17.062;2022-11-24T06:14:30;88.60;;;42.00;;
18280;SDS011;9266;51.132;17.062;2022-11-24T06:16:58;82.63;;;40.40;;
18280;SDS011;9266;51.132;17.062;2022-11-24T06:19:25;86.73;;;42.17;;
18280;SDS011;9266;51.132;17.062;2022-11-24T06:21:52;88.13;;;42.97;;
18280;SDS011;9266;51.132;17.062;2022-11-24T06:24:19;85.50;;;42.10;;
18280;SDS011;9266;51.132;17.062;2022-11-24T06:26:48;81.40;;;42.10;;
18280;SDS011;9266;51.132;17.062;2022-11-24T06:29:15;84.97;;;40.00;;
18280;SDS011;9266;51.132;17.062;2022-11-24T06:31:42;84.30;;;41.23;;
18280;SDS011;9266;51.132;17.062;2022-11-24T06:34:11;82.70;;;42.77;;
18280;SDS011;9266;51.132;17.062;2022-11-24T06:36:38;80.87;;;39.93;;
18280;SDS011;9266;51.132;17.062;2022-11-24T06:39:06;82.50;;;40.57;;
18280;SDS011;9266;51.132;17.062;2022-11-24T06:41:33;74.17;;;39.97;;
18280;SDS011;9266;51.132;17.062;2022-11-24T06:44:02;84.33;;;41.63;;
18280;SDS011;9266;51.132;17.062;2022-11-24T06:46:30;84.17;;;40.83;;
18280;SDS011;9266;51.132;17.062;2022-11-24T06:48:57;84.93;;;42.30;;
18280;SDS011;9266;51.132;17.062;2022-11-24T06:51:24;77.37;;;42.13;;
18280;SDS011;9266;51.132;17.062;2022-11-24T06:53:52;84.67;;;43.50;;
18280;SDS011;9266;51.132;17.062;2022-11-24T06:56:19;91.30;;;45.03;;
18280;SDS011;9266;51.132;17.062;2022-11-24T06:58:47;93.40;;;43.07;;
18280;SDS011;9266;51.132;17.062;2022-11-24T07:01:17;84.37;;;41.77;;
18280;SDS011;9266;51.132;17.062;2022-11-24T07:03:44;82.63;;;42.67;;
18280;SDS011;9266;51.132;17.062;2022-11-24T07:06:12;92.40;;;45.80;;
18280;SDS011;9266;51.132;17.062;2022-11-24T07:08:39;90.10;;;45.93;;
18280;SDS011;9266;51.132;17.062;2022-11-24T07:11:06;94.13;;;44.83;;
18280;SDS011;9266;51.132;17.062;2022-11-24T07:13:34;97.87;;;48.03;;
18280;SDS011;9266;51.132;17.062;2022-11-24T07:16:08;89.13;;;44.30;;
18280;SDS011;9266;51.132;17.062;2022-11-24T07:18:37;96.70;;;47.10;;
18280;SDS011;9266;51.132;17.062;2022-11-24T07:21:04;107.47;;;49.80;;
18280;SDS011;9266;51.132;17.062;2022-11-24T07:23:31;101.27;;;46.23;;
18280;SDS011;9266;51.132;17.062;2022-11-24T07:26:00;121.60;;;55.47;;
18280;SDS011;9266;51.132;17.062;2022-11-24T07:28:27;120.80;;;58.70;;
18280;SDS011;9266;51.132;17.062;2022-11-24T07:30:54;109.57;;;51.17;;
18280;SDS011;9266;51.132;17.062;2022-11-24T07:33:22;110.20;;;48.20;;
18280;SDS011;9266;51.132;17.062;2022-11-24T07:35:51;95.50;;;44.57;;
18280;SDS011;9266;51.132;17.062;2022-11-24T07:38:19;90.67;;;43.47;;
18280;SDS011;9266;51.132;17.062;2022-11-24T07:40:46;90.70;;;42.80;;
18280;SDS011;9266;51.132;17.062;2022-11-24T07:43:13;98.67;;;46.70;;
18280;SDS011;9266;51.132;17.062;2022-11-24T07:45:41;95.37;;;44.90;;
18280;SDS011;9266;51.132;17.062;2022-11-24T07:48:08;91.87;;;42.67;;
18280;SDS011;9266;51.132;17.062;2022-11-24T07:50:36;87.67;;;43.67;;
18280;SDS011;9266;51.132;17.062;2022-11-24T07:53:04;91.53;;;43.37;;
18280;SDS011;9266;51.132;17.062;2022-11-24T07:55:32;91.80;;;43.47;;
18280;SDS011;9266;51.132;17.062;2022-11-24T07:57:59;88.23;;;43.80;;
18280;SDS011;9266;51.132;17.062;2022-11-24T08:00:26;90.60;;;41.87;;
18280;SDS011;9266;51.132;17.062;2022-11-24T08:02:54;89.67;;;43.90;;
18280;SDS011;9266;51.132;17.062;2022-11-24T08:05:21;75.53;;;35.47;;
18280;SDS011;9266;51.132;17.062;2022-11-24T08:07:48;79.43;;;38.00;;
18280;SDS011;9266;51.132;17.062;2022-11-24T08:10:17;85.13;;;37.90;;
18280;SDS011;9266;51.132;17.062;2022-11-24T08:12:44;82.70;;;38.33;;
18280;SDS011;9266;51.132;17.062;2022-11-24T08:15:11;87.67;;;39.77;;
18280;SDS011;9266;51.132;17.062;2022-11-24T08:17:38;90.63;;;41.43;;
18280;SDS011;9266;51.132;17.062;2022-11-24T08:20:06;103.33;;;43.93;;
18280;SDS011;9266;51.132;17.062;2022-11-24T08:22:33;98.03;;;43.33;;
18280;SDS011;9266;51.132;17.062;2022-11-24T08:25:01;98.30;;;45.43;;
18280;SDS011;9266;51.132;17.062;2022-11-24T08:27:30;97.13;;;42.47;;
18280;SDS011;9266;51.132;17.062;2022-11-24T08:29:57;109.40;;;46.13;;
18280;SDS011;9266;51.132;17.062;2022-11-24T08:32:24;106.63;;;45.93;;
18280;SDS011;9266;51.132;17.062;2022-11-24T08:34:51;105.20;;;44.00;;
18280;SDS011;9266;51.132;17.062;2022-11-24T08:37:18;99.13;;;42.30;;
18280;SDS011;9266;51.132;17.062;2022-11-24T08:39:46;94.33;;;40.87;;
18280;SDS011;9266;51.132;17.062;2022-11-24T08:42:13;89.00;;;40.27;;
18280;SDS011;9266;51.132;17.062;2022-11-24T08:44:41;84.37;;;38.07;;
18280;SDS011;9266;51.132;17.062;2022-11-24T08:47:09;71.63;;;36.97;;
18280;SDS011;9266;51.132;17.062;2022-11-24T08:49:36;76.00;;;36.30;;
18280;SDS011;9266;51.132;17.062;2022-11-24T08:52:03;61.50;;;34.00;;
18280;SDS011;9266;51.132;17.062;2022-11-24T08:54:31;69.80;;;35.63;;
18280;SDS011;9266;51.132;17.062;2022-11-24T08:56:58;65.93;;;34.67;;
18280;SDS011;9266;51.132;17.062;2022-11-24T08:59:25;69.57;;;34.90;;
18280;SDS011;9266;51.132;17.062;2022-11-24T09:01:54;64.27;;;34.20;;
18280;SDS011;9266;51.132;17.062;2022-11-24T09:04:21;61.53;;;34.80;;
18280;SDS011;9266;51.132;17.062;2022-11-24T09:06:48;65.40;;;33.40;;
18280;SDS011;9266;51.132;17.062;2022-11-24T09:09:15;64.57;;;34.03;;
18280;SDS011;9266;51.132;17.062;2022-11-24T09:11:43;66.50;;;34.50;;
18280;SDS011;9266;51.132;17.062;2022-11-24T09:14:10;61.83;;;32.07;;
18280;SDS011;9266;51.132;17.062;2022-11-24T09:16:37;59.20;;;33.03;;
18280;SDS011;9266;51.132;17.062;2022-11-24T09:19:06;67.73;;;32.73;;
18280;SDS011;9266;51.132;17.062;2022-11-24T09:21:34;62.13;;;31.63;;
18280;SDS011;9266;51.132;17.062;2022-11-24T09:24:03;60.50;;;31.13;;
18280;SDS011;9266;51.132;17.062;2022-11-24T09:26:32;66.70;;;32.13;;
18280;SDS011;9266;51.132;17.062;2022-11-24T09:28:59;64.20;;;30.80;;
18280;SDS011;9266;51.132;17.062;2022-11-24T09:31:27;65.93;;;33.80;;
18280;SDS011;9266;51.132;17.062;2022-11-24T09:33:55;70.83;;;34.10;;
18280;SDS011;9266;51.132;17.062;2022-11-24T09:36:24;63.10;;;33.63;;
18280;SDS011;9266;51.132;17.062;2022-11-24T09:38:52;57.27;;;31.40;;
18280;SDS011;9266;51.132;17.062;2022-11-24T09:44:05;60.87;;;33.93;;
18280;SDS011;9266;51.132;17.062;2022-11-24T09:46:35;63.73;;;32.90;;
18280;SDS011;9266;51.132;17.062;2022-11-24T09:49:06;64.43;;;33.47;;
18280;SDS011;9266;51.132;17.062;2022-11-24T09:51:37;60.27;;;32.50;;
18280;SDS011;9266;51.132;17.062;2022-11-24T09:54:05;63.80;;;32.17;;
18280;SDS011;9266;51.132;17.062;2022-11-24T09:56:35;62.20;;;34.53;;
18280;SDS011;9266;51.132;17.062;2022-11-24T09:59:05;63.47;;;32.73;;
18280;SDS011;9266;51.132;17.062;2022-11-24T10:01:34;60.83;;;32.77;;
18280;SDS011;9266;51.132;17.062;2022-11-24T10:04:02;64.53;;;32.80;;
18280;SDS011;9266;51.132;17.062;2022-11-24T10:06:32;63.77;;;33.87;;
18280;SDS011;9266;51.132;17.062;2022-11-24T10:09:08;67.13;;;34.33;;
18280;SDS011;9266;51.132;17.062;2022-11-24T10:11:38;66.00;;;35.63;;
18280;SDS011;9266;51.132;17.062;2022-11-24T10:14:16;63.10;;;35.47;;
18280;SDS011;9266;51.132;17.062;2022-11-24T10:16:49;66.83;;;36.57;;
18280;SDS011;9266;51.132;17.062;2022-11-24T16:26:48;103.37;;;50.07;;
18280;SDS011;9266;51.132;17.062;2022-11-24T16:29:18;91.97;;;46.37;;
18280;SDS011;9266;51.132;17.062;2022-11-24T16:31:47;88.50;;;47.10;;
18280;SDS011;9266;51.132;17.062;2022-11-24T16:34:15;111.77;;;52.47;;
18280;SDS011;9266;51.132;17.062;2022-11-24T16:36:42;100.03;;;49.27;;
18280;SDS011;9266;51.132;17.062;2022-11-24T16:39:10;111.10;;;51.50;;
18280;SDS011;9266;51.132;17.062;2022-11-24T16:41:37;101.83;;;50.33;;
18280;SDS011;9266;51.132;17.062;2022-11-24T16:44:06;102.73;;;50.27;;
18280;SDS011;9266;51.132;17.062;2022-11-24T16:46:33;100.80;;;50.23;;
18280;SDS011;9266;51.132;17.062;2022-11-24T16:49:00;106.50;;;51.07;;
18280;SDS011;9266;51.132;17.062;2022-11-24T16:51:28;99.77;;;51.23;;
18280;SDS011;9266;51.132;17.062;2022-11-24T16:53:57;101.83;;;50.40;;
18280;SDS011;9266;51.132;17.062;2022-11-24T16:56:24;96.87;;;51.00;;
18280;SDS011;9266;51.132;17.062;2022-11-24T16:58:52;104.57;;;51.77;;
18280;SDS011;9266;51.132;17.062;2022-11-24T17:01:21;103.27;;;51.80;;
18280;SDS011;9266;51.132;17.062;2022-11-24T17:03:49;92.07;;;49.67;;
18280;SDS011;9266;51.132;17.062;2022-11-24T17:06:17;100.10;;;49.37;;
18280;SDS011;9266;51.132;17.062;2022-11-24T17:08:44;97.50;;;49.63;;
18280;SDS011;9266;51.132;17.062;2022-11-24T17:11:12;107.17;;;52.83;;
18280;SDS011;9266;51.132;17.062;2022-11-24T17:13:40;106.93;;;53.17;;
18280;SDS011;9266;51.132;17.062;2022-11-24T17:16:08;109.97;;;53.73;;
18280;SDS011;9266;51.132;17.062;2022-11-24T17:18:37;102.47;;;52.83;;
18280;SDS011;9266;51.132;17.062;2022-11-24T17:21:05;106.43;;;54.37;;
18280;SDS011;9266;51.132;17.062;2022-11-24T17:23:32;106.63;;;53.27;;
18280;SDS011;9266;51.132;17.062;2022-11-24T17:25:59;131.97;;;67.90;;
18280;SDS011;9266;51.132;17.062;2022-11-24T17:28:27;123.77;;;61.63;;
18280;SDS011;9266;51.132;17.062;2022-11-24T17:30:54;116.83;;;55.50;;
18280;SDS011;9266;51.132;17.062;2022-11-24T17:33:23;111.83;;;56.07;;
18280;SDS011;9266;51.132;17.062;2022-11-24T17:35:53;118.63;;;59.33;;
18280;SDS011;9266;51.132;17.062;2022-11-24T17:38:21;110.60;;;56.27;;
18280;SDS011;9266;51.132;17.062;2022-11-24T17:40:57;108.20;;;53.80;;
18280;SDS011;9266;51.132;17.062;2022-11-24T17:43:31;111.60;;;57.20;;
18280;SDS011;9266;51.132;17.062;2022-11-24T17:45:59;110.10;;;55.40;;
18280;SDS011;9266;51.132;17.062;2022-11-24T17:48:27;119.27;;;59.67;;
18280;SDS011;9266;51.132;17.062;2022-11-24T17:50:59;117.97;;;56.77;;
18280;SDS011;9266;51.132;17.062;2022-11-24T17:53:27;120.73;;;59.77;;
18280;SDS011;9266;51.132;17.062;2022-11-24T17:55:57;114.23;;;58.33;;
18280;SDS011;9266;51.132;17.062;2022-11-24T17:58:25;134.87;;;65.33;;
18280;SDS011;9266;51.132;17.062;2022-11-24T18:00:52;124.40;;;62.33;;
18280;SDS011;9266;51.132;17.062;2022-11-24T18:03:20;130.17;;;61.50;;
18280;SDS011;9266;51.132;17.062;2022-11-24T18:05:47;121.90;;;59.03;;
18280;SDS011;9266;51.132;17.062;2022-11-24T18:08:16;116.43;;;56.27;;
18280;SDS011;9266;51.132;17.062;2022-11-24T18:10:43;124.07;;;59.50;;
18280;SDS011;9266;51.132;17.062;2022-11-24T18:13:10;119.80;;;61.53;;
18280;SDS011;9266;51.132;17.062;2022-11-24T18:15:37;125.73;;;62.90;;
18280;SDS011;9266;51.132;17.062;2022-11-24T18:18:04;129.77;;;62.27;;
18280;SDS011;9266;51.132;17.062;2022-11-24T18:20:32;120.40;;;57.70;;
18280;SDS011;9266;51.132;17.062;2022-11-24T18:22:59;113.13;;;60.40;;
18280;SDS011;9266;51.132;17.062;2022-11-24T18:25:28;123.97;;;60.17;;
18280;SDS011;9266;51.132;17.062;2022-11-24T18:27:55;123.00;;;62.80;;
18280;SDS011;9266;51.132;17.062;2022-11-24T18:30:22;139.40;;;63.80;;
18280;SDS011;9266;51.132;17.062;2022-11-24T18:32:49;123.93;;;62.27;;
18280;SDS011;9266;51.132;17.062;2022-11-24T18:35:17;130.53;;;61.40;;
18280;SDS011;9266;51.132;17.062;2022-11-24T18:37:44;127.97;;;62.30;;
18280;SDS011;9266;51.132;17.062;2022-11-24T18:40:11;122.40;;;64.23;;
18280;SDS011;9266;51.132;17.062;2022-11-24T18:42:40;122.10;;;61.93;;
18280;SDS011;9266;51.132;17.062;2022-11-24T18:45:07;132.70;;;66.33;;
18280;SDS011;9266;51.132;17.062;2022-11-24T18:47:34;137.77;;;68.40;;
18280;SDS011;9266;51.132;17.062;2022-11-24T18:50:02;130.37;;;65.00;;
18280;SDS011;9266;51.132;17.062;2022-11-24T18:52:29;136.90;;;71.57;;
18280;SDS011;9266;51.132;17.062;2022-11-24T18:54:56;152.87;;;78.90;;
18280;SDS011;9266;51.132;17.062;2022-11-24T18:57:28;145.70;;;76.80;;
18280;SDS011;9266;51.132;17.062;2022-11-24T18:59:56;141.37;;;74.30;;
18280;SDS011;9266;51.132;17.062;2022-11-24T19:02:24;148.60;;;76.37;;
18280;SDS011;9266;51.132;17.062;2022-11-24T19:04:51;140.47;;;71.27;;
18280;SDS011;9266;51.132;17.062;2022-11-24T19:07:18;131.77;;;67.13;;
18280;SDS011;9266;51.132;17.062;2022-11-24T19:09:45;152.87;;;73.07;;
18280;SDS011;9266;51.132;17.062;2022-11-24T19:12:13;134.63;;;70.07;;
18280;SDS011;9266;51.132;17.062;2022-11-24T19:14:40;145.13;;;70.90;;
18280;SDS011;9266;51.132;17.062;2022-11-24T19:17:09;151.23;;;72.03;;
18280;SDS011;9266;51.132;17.062;2022-11-24T19:19:36;138.20;;;68.90;;
18280;SDS011;9266;51.132;17.062;2022-11-24T19:22:03;139.27;;;69.80;;
18280;SDS011;9266;51.132;17.062;2022-11-24T19:24:31;139.67;;;70.63;;
18280;SDS011;9266;51.132;17.062;2022-11-24T19:26:58;155.23;;;85.47;;
18280;SDS011;9266;51.132;17.062;2022-11-24T19:29:25;149.17;;;76.37;;
18280;SDS011;9266;51.132;17.062;2022-11-24T19:31:53;153.13;;;77.77;;
18280;SDS011;9266;51.132;17.062;2022-11-24T19:34:21;153.07;;;77.57;;
18280;SDS011;9266;51.132;17.062;2022-11-24T19:36:49;154.80;;;74.77;;
18280;SDS011;9266;51.132;17.062;2022-11-24T19:39:16;139.30;;;67.20;;
18280;SDS011;9266;51.132;17.062;2022-11-24T19:41:43;140.00;;;71.90;;
18280;SDS011;9266;51.132;17.062;2022-11-24T19:44:10;144.37;;;74.43;;
18280;SDS011;9266;51.132;17.062;2022-11-24T19:46:38;146.90;;;70.90;;
18280;SDS011;9266;51.132;17.062;2022-11-24T19:49:06;142.20;;;69.60;;
18280;SDS011;9266;51.132;17.062;2022-11-24T19:51:35;141.90;;;69.67;;
18280;SDS011;9266;51.132;17.062;2022-11-24T19:54:04;140.17;;;69.27;;
18280;SDS011;9266;51.132;17.062;2022-11-24T19:56:33;154.27;;;72.77;;
18280;SDS011;9266;51.132;17.062;2022-11-24T19:59:01;139.90;;;71.00;;
18280;SDS011;9266;51.132;17.062;2022-11-24T20:01:29;142.57;;;73.63;;
18280;SDS011;9266;51.132;17.062;2022-11-24T20:03:57;144.37;;;75.77;;
18280;SDS011;9266;51.132;17.062;2022-11-24T20:06:25;146.73;;;75.67;;
18280;SDS011;9266;51.132;17.062;2022-11-24T20:08:55;157.63;;;80.40;;
18280;SDS011;9266;51.132;17.062;2022-11-24T20:11:23;148.53;;;77.07;;
18280;SDS011;9266;51.132;17.062;2022-11-24T20:13:50;149.90;;;78.33;;
18280;SDS011;9266;51.132;17.062;2022-11-24T20:16:18;150.97;;;77.00;;
18280;SDS011;9266;51.132;17.062;2022-11-24T20:18:50;151.10;;;77.30;;
18280;SDS011;9266;51.132;17.062;2022-11-24T20:21:19;148.47;;;77.80;;
18280;SDS011;9266;51.132;17.062;2022-11-24T20:23:50;154.03;;;76.73;;
18280;SDS011;9266;51.132;17.062;2022-11-24T20:26:19;145.17;;;77.40;;
18280;SDS011;9266;51.132;17.062;2022-11-24T20:28:47;154.17;;;78.07;;
18280;SDS011;9266;51.132;17.062;2022-11-24T20:31:16;146.43;;;75.53;;
18280;SDS011;9266;51.132;17.062;2022-11-24T20:33:44;152.97;;;76.13;;
18280;SDS011;9266;51.132;17.062;2022-11-24T20:36:12;149.83;;;75.73;;